createdAt,value
2023-02-10T00:01:27.970Z,26.63
2023-02-10T00:03:57.148Z,27.35
2023-02-10T00:06:26.443Z,27.52
2023-02-10T00:08:56.657Z,27.23
2023-02-10T00:11:45.381Z,27.35
2023-02-10T00:14:15.291Z,27.10
2023-02-10T00:16:43.298Z,27.63
2023-02-10T00:19:11.190Z,26.95
2023-02-10T00:21:39.150Z,28.42
2023-02-10T00:24:07.440Z,27.85
2023-02-10T00:26:35.364Z,28.02
2023-02-10T00:29:03.245Z,28.35
2023-02-10T00:31:32.637Z,26.88
2023-02-10T00:34:00.626Z,27.35
2023-02-10T00:36:28.907Z,27.25
2023-02-10T00:38:56.876Z,27.30
2023-02-10T00:41:25.657Z,27.15
2023-02-10T00:43:56.650Z,26.77
2023-02-10T00:46:24.954Z,28.08
2023-02-10T00:48:54.239Z,26.92
2023-02-10T00:51:22.231Z,28.35
2023-02-10T00:53:50.929Z,28.13
2023-02-10T00:56:19.681Z,27.40
2023-02-10T00:58:47.649Z,27.83
2023-02-10T01:01:15.576Z,27.48
2023-02-10T01:03:43.738Z,28.02
2023-02-10T01:06:15.421Z,27.75
2023-02-10T01:08:43.583Z,27.75
2023-02-10T01:11:14.014Z,28.38
2023-02-10T01:13:42.452Z,27.90
2023-02-10T01:16:12.687Z,27.95
2023-02-10T01:18:41.298Z,27.92
2023-02-10T01:21:10.866Z,28.40
2023-02-10T01:23:40.202Z,28.02
2023-02-10T01:26:08.850Z,28.80
2023-02-10T01:28:38.180Z,27.58
2023-02-10T01:31:08.279Z,28.10
2023-02-10T01:33:38.592Z,27.60
2023-02-10T01:36:07.593Z,26.70
2023-02-10T01:38:36.570Z,27.15
2023-02-10T01:41:06.455Z,27.23
2023-02-10T01:43:34.953Z,27.40
2023-02-10T01:46:02.905Z,26.65
2023-02-10T01:48:30.798Z,27.13
2023-02-10T01:51:03.574Z,27.40
2023-02-10T01:53:31.479Z,27.05
2023-02-10T01:56:01.936Z,27.15
2023-02-10T01:58:32.846Z,26.80
2023-02-10T02:01:00.846Z,26.92
2023-02-10T02:03:28.885Z,27.10
2023-02-10T02:05:57.820Z,27.65
2023-02-10T02:08:26.850Z,27.08
2023-02-10T02:11:01.168Z,27.65
2023-02-10T02:13:41.118Z,27.33
2023-02-10T02:16:15.767Z,27.50
2023-02-10T02:18:49.449Z,27.23
2023-02-10T02:21:38.914Z,27.58
2023-02-10T02:24:24.244Z,27.25
2023-02-10T02:27:11.605Z,27.50
2023-02-10T02:30:13.688Z,27.25
2023-02-10T02:32:46.472Z,27.55
2023-02-10T02:35:18.238Z,26.92
2023-02-10T02:37:47.222Z,27.05
2023-02-10T02:40:18.135Z,26.50
2023-02-10T02:42:46.213Z,26.20
2023-02-10T02:45:18.300Z,27.10
2023-02-10T02:48:00.974Z,25.77
2023-02-10T02:50:30.762Z,27.23
2023-02-10T02:53:08.093Z,27.73
2023-02-10T02:55:44.277Z,27.00
2023-02-10T02:58:15.397Z,27.40
2023-02-10T03:00:44.772Z,27.90
2023-02-10T03:03:14.126Z,26.88
2023-02-10T03:05:42.719Z,27.30
2023-02-10T03:08:10.687Z,26.92
2023-02-10T03:10:38.573Z,25.75
2023-02-10T03:13:06.532Z,26.23
2023-02-10T03:15:34.436Z,27.63
2023-02-10T03:18:02.349Z,27.75
2023-02-10T03:20:31.621Z,26.50
2023-02-10T03:22:59.561Z,27.75
2023-02-10T03:25:27.452Z,27.20
2023-02-10T03:27:55.646Z,26.88
2023-02-10T03:30:23.602Z,27.77
2023-02-10T03:32:52.661Z,26.55
2023-02-10T03:35:20.596Z,27.27
2023-02-10T03:37:49.901Z,27.75
2023-02-10T03:40:18.348Z,28.20
2023-02-10T03:42:46.246Z,27.70
2023-02-10T03:45:14.194Z,27.88
2023-02-10T03:47:42.039Z,27.30
2023-02-10T03:50:10.162Z,28.48
2023-02-10T03:52:38.119Z,27.23
2023-02-10T03:55:08.134Z,27.67
2023-02-10T03:57:36.133Z,28.77
2023-02-10T04:00:04.367Z,27.50
2023-02-10T04:02:40.636Z,27.75
2023-02-10T04:05:09.014Z,28.45
2023-02-10T04:07:37.096Z,27.90
2023-02-10T04:10:07.566Z,28.65
2023-02-10T04:12:35.475Z,29.08
2023-02-10T04:15:03.453Z,28.45
2023-02-10T04:17:31.327Z,27.67
2023-02-10T04:19:59.278Z,28.00
2023-02-10T04:22:27.253Z,29.52
2023-02-10T04:24:55.112Z,28.30
2023-02-10T04:27:24.341Z,28.50
2023-02-10T04:29:52.292Z,28.67
2023-02-10T04:32:20.195Z,29.15
2023-02-10T04:34:48.075Z,29.20
2023-02-10T04:37:16.324Z,28.25
2023-02-10T04:39:44.296Z,28.83
2023-02-10T04:42:12.344Z,28.50
2023-02-10T04:44:41.577Z,28.90
2023-02-10T04:47:12.350Z,28.08
2023-02-10T04:49:40.268Z,28.65
2023-02-10T04:52:08.196Z,27.17
2023-02-10T04:54:36.063Z,28.33
2023-02-10T04:57:04.041Z,29.27
2023-02-10T04:59:32.017Z,27.50
2023-02-10T05:02:01.271Z,29.40
2023-02-10T05:04:29.373Z,29.33
2023-02-10T05:06:59.367Z,28.95
2023-02-10T05:09:28.148Z,28.85
2023-02-10T05:11:56.216Z,29.02
2023-02-10T05:14:24.104Z,28.45
2023-02-10T05:16:51.961Z,29.38
2023-02-10T05:19:21.241Z,29.23
2023-02-10T05:21:49.452Z,29.15
2023-02-10T05:24:17.948Z,29.25
2023-02-10T05:26:45.839Z,29.02
2023-02-10T05:29:13.777Z,29.42
2023-02-10T05:31:41.680Z,28.98
2023-02-10T05:34:09.634Z,29.10
2023-02-10T05:36:38.894Z,28.80
2023-02-10T05:39:25.085Z,28.75
2023-02-10T05:41:53.287Z,27.45
2023-02-10T05:44:21.412Z,28.23
2023-02-10T05:46:49.366Z,28.63
2023-02-10T05:49:17.969Z,28.95
2023-02-10T05:51:47.673Z,28.65
2023-02-10T05:54:16.126Z,28.75
2023-02-10T05:56:44.046Z,28.85
2023-02-10T05:59:13.740Z,28.95
2023-02-10T06:01:41.689Z,29.10
2023-02-10T06:04:09.860Z,29.05
2023-02-10T06:06:37.961Z,28.13
2023-02-10T06:09:07.743Z,28.50
2023-02-10T06:11:36.184Z,29.30
2023-02-10T06:14:04.148Z,28.92
2023-02-10T06:16:32.214Z,28.17
2023-02-10T06:19:00.142Z,28.17
2023-02-10T06:21:28.062Z,28.60
2023-02-10T06:23:56.262Z,29.25
2023-02-10T06:26:25.705Z,29.08
2023-02-10T06:28:53.556Z,28.35
2023-02-10T06:31:21.603Z,28.65
2023-02-10T06:33:49.587Z,27.63
2023-02-10T06:36:17.506Z,29.58
2023-02-10T06:38:45.421Z,29.48
2023-02-10T06:41:13.627Z,29.15
2023-02-10T06:43:56.501Z,28.02
2023-02-10T06:46:24.666Z,28.75
2023-02-10T06:48:52.761Z,30.05
2023-02-10T06:51:20.811Z,29.35
2023-02-10T06:53:51.987Z,28.75
2023-02-10T06:56:26.990Z,29.10
2023-02-10T06:58:59.711Z,28.50
2023-02-10T07:01:28.073Z,29.55
2023-02-10T07:03:58.680Z,30.58
2023-02-10T07:06:29.927Z,29.33
2023-02-10T07:08:57.852Z,30.58
2023-02-10T07:11:25.744Z,30.15
2023-02-10T07:13:53.612Z,29.90
2023-02-10T07:16:23.079Z,29.50
2023-02-10T07:18:51.008Z,30.60
2023-02-10T07:21:18.918Z,29.50
2023-02-10T07:23:46.922Z,29.40
2023-02-10T07:26:18.792Z,31.05
2023-02-10T07:28:46.768Z,31.15
2023-02-10T07:31:15.274Z,30.42
2023-02-10T07:33:44.566Z,30.38
2023-02-10T07:36:12.454Z,29.90
2023-02-10T07:38:40.435Z,30.30
2023-02-10T07:41:08.976Z,30.77
2023-02-10T07:43:37.020Z,29.95
2023-02-10T07:46:11.030Z,29.55
2023-02-10T07:48:38.933Z,31.00
2023-02-10T07:51:09.005Z,29.77
2023-02-10T07:53:38.446Z,29.17
2023-02-10T07:56:06.725Z,29.88
2023-02-10T07:58:34.670Z,29.10
2023-02-10T08:01:08.093Z,30.25
2023-02-10T08:03:36.007Z,29.25
2023-02-10T08:06:04.168Z,29.30
2023-02-10T08:08:33.492Z,27.30
2023-02-10T08:11:01.418Z,29.95
2023-02-10T08:13:30.096Z,29.90
2023-02-10T08:15:58.127Z,30.15
2023-02-10T08:18:26.435Z,30.10
2023-02-10T08:20:54.279Z,29.35
2023-02-10T08:23:23.055Z,29.88
2023-02-10T08:25:52.303Z,28.10
2023-02-10T08:28:20.349Z,29.88
2023-02-10T08:30:48.275Z,28.52
2023-02-10T08:33:16.347Z,30.50
2023-02-10T08:35:44.300Z,28.85
2023-02-10T08:38:12.235Z,29.40
2023-02-10T08:40:40.152Z,30.85
2023-02-10T08:43:09.396Z,30.15
2023-02-10T08:45:40.138Z,30.05
2023-02-10T08:48:08.042Z,29.75
2023-02-10T08:50:35.940Z,29.63
2023-02-10T08:53:03.775Z,30.75
2023-02-10T08:55:31.688Z,31.00
2023-02-10T08:57:59.547Z,31.08
2023-02-10T09:00:28.798Z,30.48
2023-02-10T09:02:56.704Z,30.95
2023-02-10T09:05:24.580Z,30.92
2023-02-10T09:07:52.578Z,31.30
2023-02-10T09:10:20.548Z,31.98
2023-02-10T09:12:49.175Z,30.95
2023-02-10T09:15:17.123Z,31.58
2023-02-10T09:17:46.330Z,31.58
2023-02-10T09:20:14.531Z,30.70
2023-02-10T09:22:42.383Z,31.05
2023-02-10T09:25:10.220Z,31.50
2023-02-10T09:27:38.119Z,31.15
2023-02-10T09:30:06.715Z,31.60
2023-02-10T09:32:34.556Z,31.15
2023-02-10T09:35:03.761Z,31.63
2023-02-10T09:37:31.696Z,31.95
2023-02-10T09:39:59.576Z,30.88
2023-02-10T09:42:33.993Z,31.15
2023-02-10T09:45:05.587Z,31.90
2023-02-10T09:47:42.814Z,31.42
2023-02-10T09:50:36.408Z,31.80
2023-02-10T09:53:11.036Z,31.88
2023-02-10T09:55:41.002Z,31.70
2023-02-10T09:58:17.631Z,32.13
2023-02-10T10:00:46.895Z,31.52
2023-02-10T10:03:17.313Z,31.80
2023-02-10T10:05:54.990Z,31.65
2023-02-10T10:08:26.752Z,32.05
2023-02-10T10:10:55.387Z,31.20
2023-02-10T10:13:26.544Z,31.23
2023-02-10T10:16:07.429Z,32.28
2023-02-10T10:18:42.877Z,32.25
2023-02-10T10:21:18.136Z,31.65
2023-02-10T10:23:56.378Z,32.25
2023-02-10T10:26:37.883Z,31.80
2023-02-10T10:29:19.233Z,31.23
2023-02-10T10:31:48.654Z,31.05
2023-02-10T10:34:19.124Z,31.58
2023-02-10T10:36:50.145Z,31.48
2023-02-10T10:39:25.301Z,31.67
2023-02-10T10:42:05.905Z,31.05
2023-02-10T10:44:36.295Z,31.52
2023-02-10T10:47:09.542Z,31.23
2023-02-10T10:49:37.628Z,31.30
2023-02-10T10:52:32.639Z,31.55
2023-02-10T10:55:00.641Z,30.92
2023-02-10T10:57:28.882Z,31.10
2023-02-10T10:59:59.579Z,31.33
2023-02-10T11:02:27.504Z,31.00
2023-02-10T11:05:02.670Z,31.48
2023-02-10T11:07:34.149Z,31.10
2023-02-10T11:10:02.594Z,31.52
2023-02-10T11:12:33.752Z,32.35
2023-02-10T11:15:02.989Z,31.95
2023-02-10T11:17:35.187Z,31.40
2023-02-10T11:20:06.323Z,33.30
2023-02-10T11:22:36.441Z,32.10
2023-02-10T11:25:25.199Z,31.92
2023-02-10T11:27:53.359Z,32.28
2023-02-10T11:30:26.730Z,32.70
2023-02-10T11:32:54.605Z,33.42
2023-02-10T11:35:22.822Z,33.70
2023-02-10T11:37:56.266Z,33.70
2023-02-10T11:40:26.724Z,34.13
2023-02-10T11:42:56.962Z,32.65
2023-02-10T11:45:27.733Z,32.30
2023-02-10T11:48:03.577Z,32.78
2023-02-10T11:50:32.925Z,32.15
2023-02-10T11:53:02.685Z,30.60
2023-02-10T11:55:39.938Z,32.33
2023-02-10T11:58:46.025Z,32.47
2023-02-10T12:01:17.696Z,31.55
2023-02-10T12:03:56.888Z,31.90
2023-02-10T12:06:36.632Z,30.25
2023-02-10T12:09:15.429Z,30.35
2023-02-10T12:11:50.270Z,30.70
2023-02-10T12:14:31.347Z,30.33
2023-02-10T12:17:05.469Z,31.10
2023-02-10T12:19:40.018Z,30.33
2023-02-10T12:22:13.406Z,29.75
2023-02-10T12:24:57.287Z,30.13
2023-02-10T12:27:32.767Z,30.42
2023-02-10T12:30:07.045Z,31.05
2023-02-10T12:32:43.820Z,30.65
2023-02-10T12:35:19.343Z,31.40
2023-02-10T12:37:54.312Z,30.50
2023-02-10T12:40:44.624Z,29.35
2023-02-10T12:43:25.828Z,29.85
2023-02-10T12:45:57.386Z,29.25
2023-02-10T12:48:31.416Z,29.65
2023-02-10T12:51:08.463Z,30.30
2023-02-10T12:53:38.835Z,29.85
2023-02-10T12:56:13.004Z,31.20
2023-02-10T12:58:42.626Z,29.80
2023-02-10T13:01:15.657Z,30.30
2023-02-10T13:03:45.227Z,30.50
2023-02-10T13:06:34.771Z,30.38
2023-02-10T13:09:06.969Z,30.35
2023-02-10T13:11:42.140Z,30.20
2023-02-10T13:14:18.476Z,29.75
2023-02-10T13:16:54.035Z,30.95
2023-02-10T13:19:27.593Z,30.45
2023-02-10T13:22:01.091Z,31.52
2023-02-10T13:24:33.330Z,31.77
2023-02-10T13:27:07.871Z,31.92
2023-02-10T13:29:42.962Z,31.90
2023-02-10T13:32:30.062Z,31.00
2023-02-10T13:34:59.645Z,30.23
2023-02-10T13:37:32.355Z,29.55
2023-02-10T13:40:03.128Z,31.00
2023-02-10T13:42:35.526Z,31.75
2023-02-10T13:45:06.308Z,32.13
2023-02-10T13:47:38.634Z,32.20
2023-02-10T13:50:10.195Z,31.48
2023-02-10T13:52:38.885Z,32.72
2023-02-10T13:55:29.363Z,30.30
2023-02-10T13:58:00.513Z,32.40
2023-02-10T14:00:30.398Z,30.92
2023-02-10T14:03:19.402Z,31.98
2023-02-10T14:05:54.443Z,31.65
2023-02-10T14:08:31.420Z,32.15
2023-02-10T14:11:01.542Z,31.30
2023-02-10T14:13:32.573Z,32.95
2023-02-10T14:16:05.824Z,32.35
2023-02-10T14:18:35.565Z,31.65
2023-02-10T14:21:06.240Z,32.63
2023-02-10T14:23:35.760Z,30.92
2023-02-10T14:26:05.397Z,32.55
2023-02-10T14:28:38.216Z,32.13
2023-02-10T14:31:09.436Z,30.55
2023-02-10T14:33:54.310Z,30.73
2023-02-10T14:36:28.527Z,30.70
2023-02-10T14:39:01.481Z,30.33
2023-02-10T14:41:35.494Z,31.40
2023-02-10T14:44:07.987Z,30.15
2023-02-10T14:46:37.009Z,32.72
2023-02-10T14:49:10.932Z,29.80
2023-02-10T14:51:41.659Z,30.20
2023-02-10T14:54:11.318Z,30.40
2023-02-10T14:56:39.329Z,29.27
2023-02-10T14:59:23.161Z,30.02
2023-02-10T15:01:51.933Z,30.65
2023-02-10T15:04:20.245Z,30.50
2023-02-10T15:06:48.759Z,30.73
2023-02-10T15:09:19.139Z,31.02
2023-02-10T15:12:07.476Z,30.33
2023-02-10T15:14:40.340Z,30.80
2023-02-10T15:17:10.748Z,30.45
2023-02-10T15:19:38.788Z,30.90
2023-02-10T15:22:33.840Z,30.60
2023-02-10T15:25:25.968Z,29.77
2023-02-10T15:27:55.456Z,29.70
2023-02-10T15:30:27.057Z,29.80
2023-02-10T15:32:56.368Z,31.27
2023-02-10T15:35:24.285Z,30.73
2023-02-10T15:37:53.644Z,30.23
2023-02-10T15:40:24.528Z,30.60
2023-02-10T15:42:59.751Z,30.23
2023-02-10T15:45:28.995Z,30.67
2023-02-10T15:48:01.380Z,31.27
2023-02-10T15:50:31.129Z,31.10
2023-02-10T15:52:59.598Z,30.13
2023-02-10T15:55:31.652Z,30.75
2023-02-10T15:57:59.764Z,30.42
2023-02-10T16:00:31.566Z,30.20
2023-02-10T16:03:00.035Z,29.95
2023-02-10T16:05:28.457Z,30.40
2023-02-10T16:07:57.508Z,30.30
2023-02-10T16:10:26.825Z,31.00
2023-02-10T16:12:54.983Z,31.77
2023-02-10T16:15:24.422Z,31.23
2023-02-10T16:17:55.275Z,30.85
2023-02-10T16:20:25.047Z,31.83
2023-02-10T16:22:53.063Z,30.38
2023-02-10T16:25:25.326Z,31.02
2023-02-10T16:27:53.417Z,30.55
2023-02-10T16:30:25.348Z,30.55
2023-02-10T16:32:55.679Z,31.83
2023-02-10T16:35:24.509Z,30.33
2023-02-10T16:37:55.049Z,30.10
2023-02-10T16:40:26.699Z,30.95
2023-02-10T16:42:54.879Z,28.95
2023-02-10T16:45:22.836Z,31.02
2023-02-10T16:47:51.137Z,30.95
2023-02-10T16:50:26.084Z,31.08
2023-02-10T16:52:54.164Z,30.92
2023-02-10T16:55:22.032Z,30.40
2023-02-10T16:57:50.250Z,31.15
2023-02-10T17:00:20.665Z,30.40
2023-02-10T17:02:48.973Z,29.60
2023-02-10T17:05:17.382Z,30.85
2023-02-10T17:07:47.090Z,30.85
2023-02-10T17:10:17.414Z,30.75
2023-02-10T17:12:45.352Z,30.70
2023-02-10T17:15:13.290Z,31.40
2023-02-10T17:17:42.326Z,31.00
2023-02-10T17:20:18.618Z,30.65
2023-02-10T17:22:47.896Z,30.38
2023-02-10T17:25:15.836Z,30.83
2023-02-10T17:27:43.880Z,30.90
2023-02-10T17:30:13.921Z,31.35
2023-02-10T17:32:45.281Z,31.20
2023-02-10T17:35:14.114Z,30.58
2023-02-10T17:37:43.355Z,32.35
2023-02-10T17:40:27.486Z,31.85
2023-02-10T17:42:55.379Z,31.67
2023-02-10T17:45:23.266Z,31.52
2023-02-10T17:47:51.134Z,31.58
2023-02-10T17:50:19.169Z,31.23
2023-02-10T17:52:47.065Z,30.92
2023-02-10T17:55:22.103Z,31.55
2023-02-10T17:57:50.756Z,31.40
2023-02-10T18:00:19.728Z,31.67
2023-02-10T18:02:48.515Z,31.33
2023-02-10T18:05:16.578Z,31.45
2023-02-10T18:07:44.475Z,31.52
2023-02-10T18:10:12.348Z,31.45
2023-02-10T18:12:41.637Z,31.77
2023-02-10T18:15:10.717Z,31.70
2023-02-10T18:17:38.619Z,31.30
2023-02-10T18:20:08.337Z,31.63
2023-02-10T18:22:36.219Z,32.35
2023-02-10T18:25:04.191Z,29.75
2023-02-10T18:27:32.064Z,30.77
2023-02-10T18:30:01.447Z,31.10
2023-02-10T18:32:29.725Z,31.35
2023-02-10T18:34:57.713Z,30.92
2023-02-10T18:37:25.554Z,31.55
2023-02-10T18:39:56.510Z,31.65
2023-02-10T18:42:24.510Z,31.85
2023-02-10T18:44:52.450Z,31.33
2023-02-10T18:47:24.186Z,31.83
2023-02-10T18:49:53.100Z,31.75
2023-02-10T18:52:21.191Z,30.90
2023-02-10T18:54:49.217Z,30.65
2023-02-10T18:57:17.105Z,31.15
2023-02-10T18:59:45.014Z,30.90
2023-02-10T19:02:13.858Z,31.00
2023-02-10T19:04:43.106Z,31.55
2023-02-10T19:07:11.001Z,31.10
2023-02-10T19:09:39.786Z,31.20
2023-02-10T19:12:08.582Z,30.80
2023-02-10T19:14:36.853Z,31.52
2023-02-10T19:17:04.861Z,31.52
2023-02-10T19:19:32.971Z,29.92
2023-02-10T19:22:02.848Z,31.08
2023-02-10T19:24:30.871Z,30.27
2023-02-10T19:26:58.844Z,30.02
2023-02-10T19:29:26.707Z,31.08
2023-02-10T19:31:54.622Z,30.75
2023-02-10T19:34:22.459Z,30.02
2023-02-10T19:36:52.057Z,29.17
2023-02-10T19:39:21.279Z,30.23
2023-02-10T19:41:49.318Z,29.90
2023-02-10T19:44:18.590Z,28.92
2023-02-10T19:46:46.743Z,30.95
2023-02-10T19:49:15.581Z,30.75
2023-02-10T19:51:44.944Z,30.35
2023-02-10T19:54:12.918Z,30.75
2023-02-10T19:56:42.332Z,31.33
2023-02-10T19:59:10.596Z,29.75
2023-02-10T20:01:39.292Z,30.92
2023-02-10T20:04:07.972Z,30.10
2023-02-10T20:06:37.661Z,30.15
2023-02-10T20:09:06.650Z,30.10
2023-02-10T20:11:34.957Z,30.25
2023-02-10T20:14:06.006Z,30.08
2023-02-10T20:16:33.888Z,29.92
2023-02-10T20:19:01.737Z,29.50
2023-02-10T20:21:29.554Z,29.80
2023-02-10T20:23:57.380Z,30.10
2023-02-10T20:26:26.698Z,29.90
2023-02-10T20:28:54.608Z,30.77
2023-02-10T20:31:23.970Z,31.55
2023-02-10T20:33:52.497Z,30.23
2023-02-10T20:36:21.122Z,30.25
2023-02-10T20:38:49.810Z,30.25
2023-02-10T20:41:20.659Z,28.80
2023-02-10T20:43:49.465Z,29.83
2023-02-10T20:46:18.395Z,31.40
2023-02-10T20:48:49.191Z,30.25
2023-02-10T20:51:17.632Z,29.67
2023-02-10T20:53:46.928Z,30.27
2023-02-10T20:56:17.056Z,30.50
2023-02-10T20:58:45.388Z,29.48
2023-02-10T21:01:15.256Z,30.27
2023-02-10T21:03:43.210Z,30.42
2023-02-10T21:06:15.986Z,31.17
2023-02-10T21:08:44.858Z,30.38
2023-02-10T21:11:15.286Z,30.48
2023-02-10T21:13:43.255Z,29.55
2023-02-10T21:16:12.939Z,31.23
2023-02-10T21:18:40.839Z,31.55
2023-02-10T21:21:10.968Z,30.77
2023-02-10T21:23:40.381Z,30.67
2023-02-10T21:26:08.784Z,30.45
2023-02-10T21:28:38.099Z,31.05
2023-02-10T21:31:13.063Z,30.15
2023-02-10T21:33:41.366Z,29.88
2023-02-10T21:36:18.662Z,30.17
2023-02-10T21:38:47.868Z,30.63
2023-02-10T21:41:29.694Z,30.83
2023-02-10T21:43:57.544Z,30.83
2023-02-10T21:46:26.261Z,30.15
2023-02-10T21:48:54.188Z,29.00
2023-02-10T21:51:22.166Z,31.25
2023-02-10T21:53:51.578Z,30.90
2023-02-10T21:56:20.103Z,30.77
2023-02-10T21:58:48.108Z,30.38
2023-02-10T22:01:18.162Z,30.48
2023-02-10T22:03:46.070Z,30.65
2023-02-10T22:06:14.005Z,30.80
2023-02-10T22:08:41.912Z,30.45
2023-02-10T22:11:12.946Z,30.33
2023-02-10T22:13:42.124Z,30.23
2023-02-10T22:16:11.839Z,30.45
2023-02-10T22:18:39.725Z,28.67
2023-02-10T22:21:09.349Z,29.70
2023-02-10T22:23:37.202Z,30.48
2023-02-10T22:26:05.641Z,31.20
2023-02-10T22:28:35.153Z,30.35
2023-02-10T22:31:06.288Z,30.48
2023-02-10T22:33:34.156Z,30.63
2023-02-10T22:36:04.445Z,30.92
2023-02-10T22:38:32.359Z,30.25
2023-02-10T22:41:00.246Z,30.23
2023-02-10T22:43:28.219Z,30.05
2023-02-10T22:45:57.519Z,30.73
2023-02-10T22:48:25.436Z,30.15
2023-02-10T22:50:53.270Z,29.85
2023-02-10T22:53:21.146Z,30.55
2023-02-10T22:55:49.261Z,30.48
2023-02-10T22:58:17.344Z,29.48
2023-02-10T23:00:45.212Z,30.23
2023-02-10T23:03:14.470Z,30.02
2023-02-10T23:05:45.266Z,30.70
2023-02-10T23:08:13.101Z,30.88
2023-02-10T23:10:40.944Z,31.00
2023-02-10T23:13:08.853Z,30.15
2023-02-10T23:15:36.741Z,31.13
2023-02-10T23:18:04.839Z,30.73
2023-02-10T23:20:36.465Z,29.90
2023-02-10T23:23:05.839Z,30.50
2023-02-10T23:25:33.832Z,30.02
2023-02-10T23:28:01.695Z,29.95
2023-02-10T23:30:29.616Z,30.50
2023-02-10T23:32:57.448Z,30.17
2023-02-10T23:35:25.301Z,29.65
2023-02-10T23:37:54.503Z,30.65
2023-02-10T23:40:22.330Z,30.60
2023-02-10T23:42:50.461Z,30.27
2023-02-10T23:45:18.344Z,30.33
2023-02-10T23:47:46.201Z,30.42
2023-02-10T23:50:14.150Z,30.48
2023-02-10T23:52:41.974Z,29.63
2023-02-10T23:55:11.309Z,30.55
2023-02-10T23:57:39.189Z,30.35
